createdAt,value
2018-04-07T00:00:45.561Z,101797.84
2018-04-07T00:03:13.084Z,101797.20
2018-04-07T00:05:40.935Z,101794.62
2018-04-07T00:08:08.429Z,101784.53
2018-04-07T00:10:35.956Z,101800.95
2018-04-07T00:13:03.818Z,101798.57
2018-04-07T00:15:31.323Z,101794.41
2018-04-07T00:17:58.864Z,101786.48
2018-04-07T00:20:26.371Z,101793.45
2018-04-07T00:22:53.877Z,101787.38
2018-04-07T00:25:21.416Z,101793.25
2018-04-07T00:27:48.927Z,101788.77
2018-04-07T00:30:16.477Z,101787.36
2018-04-07T00:32:44.038Z,101783.88
2018-04-07T00:35:11.563Z,101789.70
2018-04-07T00:37:39.108Z,101782.34
2018-04-07T00:40:06.621Z,101782.61
2018-04-07T00:42:34.190Z,101778.98
2018-04-07T00:45:01.715Z,101777.72
2018-04-07T00:47:29.299Z,101767.20
2018-04-07T00:49:56.832Z,101761.80
2018-04-07T00:52:24.388Z,101763.62
2018-04-07T00:54:52.017Z,101768.34
2018-04-07T00:57:19.580Z,101757.67
2018-04-07T00:59:47.109Z,101759.58
2018-04-07T01:02:14.650Z,101758.89
2018-04-07T01:04:42.520Z,101756.63
2018-04-07T01:07:10.076Z,101760.06
2018-04-07T01:09:37.571Z,101751.90
2018-04-07T01:12:05.111Z,101745.09
2018-04-07T01:14:33.143Z,101741.87
2018-04-07T01:17:00.652Z,101738.39
2018-04-07T01:19:28.224Z,101734.82
2018-04-07T01:21:55.744Z,101731.37
2018-04-07T01:24:23.294Z,101734.52
2018-04-07T01:26:50.837Z,101741.32
2018-04-07T01:29:18.347Z,101741.34
2018-04-07T01:31:45.929Z,101737.61
2018-04-07T01:34:13.495Z,101738.41
2018-04-07T01:36:41.010Z,101739.08
2018-04-07T01:39:08.772Z,101739.08
2018-04-07T01:41:36.328Z,101738.17
2018-04-07T01:44:03.926Z,101741.88
2018-04-07T01:46:31.491Z,101735.16
2018-04-07T01:48:59.323Z,101741.41
2018-04-07T01:51:26.883Z,101727.48
2018-04-07T01:53:54.478Z,101725.80
2018-04-07T01:56:22.305Z,101731.05
2018-04-07T01:58:49.792Z,101724.05
2018-04-07T02:01:17.320Z,101727.39
2018-04-07T02:03:44.988Z,101725.22
2018-04-07T02:06:12.508Z,101724.46
2018-04-07T02:08:40.095Z,101720.91
2018-04-07T02:11:07.629Z,101713.98
2018-04-07T02:13:35.153Z,101716.94
2018-04-07T02:16:02.711Z,101726.17
2018-04-07T02:18:30.245Z,101722.94
2018-04-07T02:20:57.912Z,101723.36
2018-04-07T02:23:25.427Z,101725.17
2018-04-07T02:25:52.948Z,101733.58
2018-04-07T02:28:21.094Z,101725.80
2018-04-07T02:30:48.636Z,101724.60
2018-04-07T02:33:16.434Z,101724.25
2018-04-07T02:35:43.952Z,101728.53
2018-04-07T02:38:11.504Z,101720.27
2018-04-07T02:40:39.041Z,101720.69
2018-04-07T02:43:07.291Z,101721.98
2018-04-07T02:45:35.149Z,101729.28
2018-04-07T02:48:02.664Z,101728.14
2018-04-07T02:50:30.200Z,101723.31
2018-04-07T02:52:57.754Z,101724.58
2018-04-07T02:55:25.314Z,101715.97
2018-04-07T02:57:52.943Z,101725.27
2018-04-07T03:00:20.444Z,101719.27
2018-04-07T03:02:48.711Z,101715.13
2018-04-07T03:05:16.299Z,101710.09
2018-04-07T03:07:43.826Z,101706.38
2018-04-07T03:10:11.387Z,101705.34
2018-04-07T03:12:38.937Z,101699.63
2018-04-07T03:15:06.440Z,101688.20
2018-04-07T03:17:34.041Z,101695.65
2018-04-07T03:20:01.555Z,101699.08
2018-04-07T03:22:29.117Z,101695.88
2018-04-07T03:24:56.627Z,101694.80
2018-04-07T03:27:24.194Z,101690.20
2018-04-07T03:29:51.725Z,101686.64
2018-04-07T03:32:19.285Z,101694.19
2018-04-07T03:34:46.824Z,101683.82
2018-04-07T03:37:14.345Z,101677.66
2018-04-07T03:39:42.302Z,101675.01
2018-04-07T03:42:09.815Z,101687.03
2018-04-07T03:44:37.349Z,101685.83
2018-04-07T03:47:05.298Z,101683.23
2018-04-07T03:49:32.821Z,101683.76
2018-04-07T03:52:00.383Z,101685.28
2018-04-07T03:54:28.286Z,101682.81
2018-04-07T03:56:55.830Z,101683.23
2018-04-07T03:59:23.397Z,101675.75
2018-04-07T04:01:50.923Z,101674.62
2018-04-07T04:04:18.478Z,101670.09
2018-04-07T04:06:46.003Z,101672.06
2018-04-07T04:09:13.572Z,101665.91
2018-04-07T04:11:41.129Z,101669.73
2018-04-07T04:14:08.652Z,101665.00
2018-04-07T04:16:36.218Z,101661.99
2018-04-07T04:19:03.739Z,101657.59
2018-04-07T04:21:31.295Z,101658.00
2018-04-07T04:23:59.118Z,101655.84
2018-04-07T04:26:26.620Z,101656.94
2018-04-07T04:28:54.230Z,101657.06
2018-04-07T04:31:21.753Z,101663.52
2018-04-07T04:33:49.347Z,101648.29
2018-04-07T04:36:16.870Z,101653.67
2018-04-07T04:38:44.377Z,101650.45
2018-04-07T04:41:11.942Z,101648.48
2018-04-07T04:43:39.540Z,101641.16
2018-04-07T04:46:07.370Z,101648.48
2018-04-07T04:48:35.588Z,101639.12
2018-04-07T04:51:03.100Z,101641.00
2018-04-07T04:53:30.619Z,101636.79
2018-04-07T04:55:58.132Z,101641.59
2018-04-07T04:58:25.997Z,101631.31
2018-04-07T05:00:53.523Z,101641.30
2018-04-07T05:03:21.048Z,101637.37
2018-04-07T05:05:48.634Z,101628.30
2018-04-07T05:08:16.205Z,101625.10
2018-04-07T05:10:43.763Z,101627.75
2018-04-07T05:13:11.286Z,101625.09
2018-04-07T05:15:38.880Z,101629.38
2018-04-07T05:18:06.429Z,101636.44
2018-04-07T05:20:33.962Z,101616.16
2018-04-07T05:23:01.486Z,101620.43
2018-04-07T05:25:29.012Z,101627.64
2018-04-07T05:27:56.542Z,101616.23
2018-04-07T05:30:24.113Z,101607.52
2018-04-07T05:32:51.681Z,101613.11
2018-04-07T05:35:19.222Z,101614.50
2018-04-07T05:37:46.815Z,101616.67
2018-04-07T05:40:14.353Z,101617.70
2018-04-07T05:42:41.928Z,101606.95
2018-04-07T05:45:09.470Z,101615.35
2018-04-07T05:47:37.544Z,101621.30
2018-04-07T05:50:05.825Z,101615.08
2018-04-07T05:52:33.740Z,101606.39
2018-04-07T05:55:01.347Z,101609.73
2018-04-07T05:57:28.863Z,101604.68
2018-04-07T05:59:56.378Z,101603.48
2018-04-07T06:02:23.976Z,101600.17
2018-04-07T06:04:51.516Z,101604.65
2018-04-07T06:07:19.771Z,101600.22
2018-04-07T06:09:47.313Z,101607.38
2018-04-07T06:12:14.843Z,101606.97
2018-04-07T06:14:42.429Z,101613.86
2018-04-07T06:17:09.943Z,101612.97
2018-04-07T06:19:37.773Z,101609.42
2018-04-07T06:22:05.350Z,101605.06
2018-04-07T06:24:32.894Z,101607.80
2018-04-07T06:27:02.394Z,101608.27
2018-04-07T06:29:29.951Z,101596.55
2018-04-07T06:31:57.504Z,101597.27
2018-04-07T06:34:25.576Z,101597.80
2018-04-07T06:36:54.396Z,101597.24
2018-04-07T06:39:22.532Z,101589.17
2018-04-07T06:41:50.400Z,101593.31
2018-04-07T06:44:18.177Z,101594.26
2018-04-07T06:46:46.072Z,101584.03
2018-04-07T06:49:13.626Z,101581.47
2018-04-07T06:51:41.206Z,101583.59
2018-04-07T06:54:09.165Z,101582.13
2018-04-07T06:56:39.171Z,101578.08
2018-04-07T06:59:08.310Z,101576.86
2018-04-07T07:01:35.870Z,101571.83
2018-04-07T07:04:03.411Z,101565.92
2018-04-07T07:06:30.972Z,101562.02
2018-04-07T07:08:58.625Z,101560.30
2018-04-07T07:11:26.472Z,101562.88
2018-04-07T07:13:55.096Z,101563.61
2018-04-07T07:16:22.713Z,101560.30
2018-04-07T07:18:50.220Z,101564.03
2018-04-07T07:21:17.905Z,101562.98
2018-04-07T07:23:45.469Z,101567.67
2018-04-07T07:26:13.025Z,101573.30
2018-04-07T07:28:40.568Z,101569.27
2018-04-07T07:31:08.147Z,101566.00
2018-04-07T07:33:35.723Z,101562.36
2018-04-07T07:36:03.600Z,101563.61
2018-04-07T07:38:31.140Z,101555.55
2018-04-07T07:40:58.900Z,101567.23
2018-04-07T07:43:26.434Z,101550.86
2018-04-07T07:45:53.950Z,101549.56
2018-04-07T07:48:21.484Z,101546.42
2018-04-07T07:50:49.402Z,101545.94
2018-04-07T07:53:17.804Z,101558.17
2018-04-07T07:55:45.386Z,101550.62
2018-04-07T07:58:13.047Z,101547.02
2018-04-07T08:00:40.603Z,101542.09
2018-04-07T08:03:08.257Z,101546.65
2018-04-07T08:05:35.881Z,101537.05
2018-04-07T08:08:03.517Z,101542.63
2018-04-07T08:10:31.080Z,101535.17
2018-04-07T08:12:58.919Z,101539.20
2018-04-07T08:15:26.426Z,101536.78
2018-04-07T08:17:54.121Z,101537.64
2018-04-07T08:20:21.646Z,101537.83
2018-04-07T08:22:49.517Z,101528.78
2018-04-07T08:25:17.101Z,101530.14
2018-04-07T08:27:44.684Z,101529.23
2018-04-07T08:30:12.228Z,101539.33
2018-04-07T08:32:41.045Z,101532.70
2018-04-07T08:35:09.159Z,101519.51
2018-04-07T08:37:36.813Z,101524.83
2018-04-07T08:40:04.470Z,101522.34
2018-04-07T08:42:32.102Z,101515.77
2018-04-07T08:44:59.656Z,101520.70
2018-04-07T08:47:27.252Z,101505.11
2018-04-07T08:49:54.818Z,101513.55
2018-04-07T08:52:22.407Z,101496.98
2018-04-07T08:54:50.352Z,101499.96
2018-04-07T08:57:18.001Z,101499.69
2018-04-07T08:59:45.724Z,101492.47
2018-04-07T09:02:13.558Z,101499.73
2018-04-07T09:04:41.161Z,101500.67
2018-04-07T09:07:08.829Z,101497.86
2018-04-07T09:09:36.415Z,101489.67
2018-04-07T09:12:04.298Z,101482.09
2018-04-07T09:14:32.150Z,101483.45
2018-04-07T09:16:59.703Z,101486.02
2018-04-07T09:19:27.295Z,101474.56
2018-04-07T09:21:54.827Z,101476.75
2018-04-07T09:24:22.361Z,101474.58
2018-04-07T09:26:49.890Z,101477.77
2018-04-07T09:29:17.457Z,101474.88
2018-04-07T09:31:44.970Z,101480.30
2018-04-07T09:34:12.533Z,101483.05
2018-04-07T09:36:40.102Z,101475.20
2018-04-07T09:39:07.811Z,101482.17
2018-04-07T09:41:35.589Z,101481.55
2018-04-07T09:44:03.137Z,101473.80
2018-04-07T09:46:30.683Z,101476.27
2018-04-07T09:48:58.322Z,101473.77
2018-04-07T09:51:25.954Z,101465.14
2018-04-07T09:53:53.869Z,101457.83
2018-04-07T09:56:21.486Z,101459.34
2018-04-07T09:58:49.065Z,101459.58
2018-04-07T10:01:16.697Z,101454.30
2018-04-07T10:03:44.250Z,101451.39
2018-04-07T10:06:11.811Z,101448.33
2018-04-07T10:08:39.432Z,101450.89
2018-04-07T10:11:06.963Z,101439.66
2018-04-07T10:13:34.590Z,101435.77
2018-04-07T10:16:02.163Z,101443.61
2018-04-07T10:18:29.693Z,101437.16
2018-04-07T10:20:57.249Z,101429.63
2018-04-07T10:23:24.813Z,101430.13
2018-04-07T10:25:52.487Z,101426.24
2018-04-07T10:28:20.444Z,101428.12
2018-04-07T10:30:48.003Z,101410.30
2018-04-07T10:33:15.521Z,101411.34
2018-04-07T10:35:43.051Z,101406.89
2018-04-07T10:38:10.692Z,101405.45
2018-04-07T10:40:38.288Z,101405.53
2018-04-07T10:43:05.844Z,101410.26
2018-04-07T10:45:33.580Z,101404.11
2018-04-07T10:48:01.112Z,101396.05
2018-04-07T10:50:28.717Z,101385.81
2018-04-07T10:52:56.249Z,101388.48
2018-04-07T10:55:23.807Z,101377.52
2018-04-07T10:57:51.384Z,101376.00
2018-04-07T11:00:19.336Z,101375.53
2018-04-07T11:02:46.876Z,101377.91
2018-04-07T11:05:14.455Z,101368.02
2018-04-07T11:07:41.995Z,101366.96
2018-04-07T11:10:09.681Z,101368.21
2018-04-07T11:12:37.245Z,101359.76
2018-04-07T11:15:05.123Z,101353.20
2018-04-07T11:17:32.679Z,101355.17
2018-04-07T11:20:00.251Z,101346.03
2018-04-07T11:22:27.789Z,101354.31
2018-04-07T11:24:55.377Z,101357.83
2018-04-07T11:27:24.282Z,101350.99
2018-04-07T11:29:52.118Z,101353.23
2018-04-07T11:32:19.622Z,101352.77
2018-04-07T11:34:47.734Z,101348.58
2018-04-07T11:37:16.193Z,101347.47
2018-04-07T11:39:43.746Z,101339.92
2018-04-07T11:42:11.284Z,101338.00
2018-04-07T11:44:38.813Z,101337.30
2018-04-07T11:47:06.334Z,101326.47
2018-04-07T11:49:33.863Z,101327.88
2018-04-07T11:52:01.393Z,101315.86
2018-04-07T11:54:29.567Z,101309.24
2018-04-07T11:56:57.117Z,101307.63
2018-04-07T11:59:24.632Z,101304.06
2018-04-07T12:04:26.342Z,101298.27
2018-04-07T12:06:53.952Z,101301.09
2018-04-07T12:09:21.522Z,101288.65
2018-04-07T12:11:49.222Z,101282.28
2018-04-07T12:14:16.785Z,101284.28
2018-04-07T12:16:44.418Z,101283.98
2018-04-07T12:19:11.936Z,101277.16
2018-04-07T12:21:39.615Z,101283.53
2018-04-07T12:24:07.240Z,101280.61
2018-04-07T12:26:34.911Z,101272.95
2018-04-07T12:29:02.468Z,101270.52
2018-04-07T12:31:30.123Z,101269.76
2018-04-07T12:33:57.751Z,101265.22
2018-04-07T12:36:25.434Z,101267.26
2018-04-07T12:38:53.984Z,101264.47
2018-04-07T12:41:21.552Z,101259.61
2018-04-07T12:43:49.135Z,101257.96
2018-04-07T12:46:16.834Z,101249.82
2018-04-07T12:48:44.436Z,101243.68
2018-04-07T12:51:12.077Z,101231.90
2018-04-07T12:53:39.612Z,101233.67
2018-04-07T12:56:07.215Z,101233.43
2018-04-07T12:58:34.900Z,101225.72
2018-04-07T13:01:02.515Z,101230.33
2018-04-07T13:03:30.068Z,101224.15
2018-04-07T13:05:57.756Z,101219.53
2018-04-07T13:08:25.394Z,101224.74
2018-04-07T13:10:53.479Z,101222.15
2018-04-07T13:13:21.002Z,101207.67
2018-04-07T13:15:48.583Z,101206.59
2018-04-07T13:18:16.806Z,101205.83
2018-04-07T13:20:44.395Z,101200.88
2018-04-07T13:23:11.956Z,101202.50
2018-04-07T13:25:39.487Z,101199.55
2018-04-07T13:28:07.095Z,101192.45
2018-04-07T13:30:34.965Z,101190.32
2018-04-07T13:33:02.497Z,101192.55
2018-04-07T13:35:30.261Z,101186.46
2018-04-07T13:37:57.830Z,101185.25
2018-04-07T13:40:25.369Z,101174.21
2018-04-07T13:42:53.164Z,101166.83
2018-04-07T13:45:20.746Z,101155.41
2018-04-07T13:47:48.282Z,101157.06
2018-04-07T13:50:15.875Z,101158.11
2018-04-07T13:52:43.533Z,101153.73
2018-04-07T13:55:11.058Z,101158.17
2018-04-07T13:57:38.596Z,101145.80
2018-04-07T14:00:06.180Z,101137.90
2018-04-07T14:02:33.829Z,101144.98
2018-04-07T14:05:01.404Z,101146.30
2018-04-07T14:07:29.011Z,101141.58
2018-04-07T14:09:56.594Z,101134.98
2018-04-07T14:12:24.423Z,101129.02
2018-04-07T14:14:52.082Z,101127.84
2018-04-07T14:17:19.723Z,101122.34
2018-04-07T14:19:47.673Z,101105.81
2018-04-07T14:22:15.262Z,101107.66
2018-04-07T14:24:42.838Z,101109.36
2018-04-07T14:27:10.371Z,101095.20
2018-04-07T14:29:38.005Z,101099.97
2018-04-07T14:32:05.669Z,101103.02
2018-04-07T14:34:33.402Z,101097.81
2018-04-07T14:37:01.012Z,101098.80
2018-04-07T14:39:28.543Z,101091.71
2018-04-07T14:41:56.308Z,101083.66
2018-04-07T14:44:23.937Z,101079.91
2018-04-07T14:46:51.492Z,101089.55
2018-04-07T14:49:19.105Z,101074.00
2018-04-07T14:51:46.778Z,101078.55
2018-04-07T14:54:14.441Z,101088.64
2018-04-07T14:56:42.694Z,101082.80
2018-04-07T14:59:10.548Z,101075.14
2018-04-07T15:01:38.065Z,101061.86
2018-04-07T15:04:05.801Z,101057.97
2018-04-07T15:06:33.436Z,101061.17
2018-04-07T15:09:00.968Z,101053.36
2018-04-07T15:11:28.523Z,101059.78
2018-04-07T15:13:56.072Z,101053.27
2018-04-07T15:16:23.676Z,101056.03
2018-04-07T15:18:51.197Z,101050.41
2018-04-07T15:21:18.732Z,101043.84
2018-04-07T15:23:46.249Z,101039.36
2018-04-07T15:26:13.786Z,101041.69
2018-04-07T15:28:41.372Z,101044.80
2018-04-07T15:31:08.991Z,101046.23
2018-04-07T15:33:36.520Z,101051.66
2018-04-07T15:36:04.057Z,101042.92
2018-04-07T15:38:31.619Z,101044.50
2018-04-07T15:40:59.142Z,101057.21
2018-04-07T15:43:26.706Z,101051.61
2018-04-07T15:45:54.220Z,101044.20
2018-04-07T15:48:21.823Z,101046.38
2018-04-07T15:50:49.614Z,101040.01
2018-04-07T15:53:17.208Z,101036.52
2018-04-07T15:55:44.734Z,101024.98
2018-04-07T15:58:12.295Z,101030.09
2018-04-07T16:00:39.866Z,101022.47
2018-04-07T16:03:07.724Z,101022.66
2018-04-07T16:05:35.332Z,101021.09
2018-04-07T16:08:02.911Z,101024.83
2018-04-07T16:10:30.484Z,101027.44
2018-04-07T16:12:58.033Z,101021.22
2018-04-07T16:15:25.638Z,101017.08
2018-04-07T16:17:53.464Z,101022.53
2018-04-07T16:20:21.160Z,101016.36
2018-04-07T16:22:49.046Z,101010.87
2018-04-07T16:25:16.673Z,101015.64
2018-04-07T16:27:44.635Z,101008.39
2018-04-07T16:30:12.336Z,101002.38
2018-04-07T16:32:40.302Z,100998.31
2018-04-07T16:35:07.866Z,100996.31
2018-04-07T16:37:35.408Z,100997.38
2018-04-07T16:40:03.076Z,100994.93
2018-04-07T16:42:30.700Z,100992.86
2018-04-07T16:44:58.295Z,100993.98
2018-04-07T16:50:11.231Z,100985.92
2018-04-07T16:52:38.838Z,100990.59
2018-04-07T16:55:06.446Z,100987.47
2018-04-07T16:57:34.047Z,100995.30
2018-04-07T17:00:01.683Z,101001.80
2018-04-07T17:02:29.264Z,100993.89
2018-04-07T17:04:56.824Z,100991.61
2018-04-07T17:07:24.391Z,100993.91
2018-04-07T17:09:51.976Z,100993.43
2018-04-07T17:12:19.707Z,100991.78
2018-04-07T17:14:47.330Z,101002.06
2018-04-07T17:17:14.889Z,100997.78
2018-04-07T17:19:42.493Z,100989.52
2018-04-07T17:22:10.058Z,100995.08
2018-04-07T17:24:37.599Z,100990.16
2018-04-07T17:27:05.134Z,100988.05
2018-04-07T17:29:32.700Z,100984.75
2018-04-07T17:32:00.261Z,100983.81
2018-04-07T17:34:28.395Z,100977.98
2018-04-07T17:36:55.956Z,100982.61
2018-04-07T17:39:23.782Z,100979.83
2018-04-07T17:41:51.417Z,100985.13
2018-04-07T17:44:18.909Z,100977.94
2018-04-07T17:46:46.566Z,100978.69
2018-04-07T17:49:14.092Z,100977.15
2018-04-07T17:51:41.682Z,100987.06
2018-04-07T17:54:09.229Z,100983.07
2018-04-07T17:56:36.795Z,100994.01
2018-04-07T17:59:04.897Z,100990.95
2018-04-07T18:01:32.447Z,100988.55
2018-04-07T18:04:00.110Z,100988.56
2018-04-07T18:06:27.974Z,100990.47
2018-04-07T18:08:55.495Z,100995.16
2018-04-07T18:11:23.124Z,100995.03
2018-04-07T18:13:50.718Z,100991.78
2018-04-07T18:16:18.268Z,100992.86
2018-04-07T18:18:45.818Z,101001.77
2018-04-07T18:21:13.366Z,101000.02
2018-04-07T18:23:40.916Z,101001.34
2018-04-07T18:26:08.527Z,101000.73
2018-04-07T18:28:36.082Z,100999.39
2018-04-07T18:31:03.591Z,101002.23
2018-04-07T18:33:31.128Z,101002.42
2018-04-07T18:35:59.026Z,101001.02
2018-04-07T18:38:26.551Z,101003.77
2018-04-07T18:40:54.059Z,101010.24
2018-04-07T18:43:21.640Z,101005.94
2018-04-07T18:45:49.194Z,101008.48
2018-04-07T18:48:16.779Z,101013.75
2018-04-07T18:50:44.399Z,101014.07
2018-04-07T18:53:11.977Z,101011.37
2018-04-07T18:55:39.819Z,101012.77
2018-04-07T18:58:07.384Z,101011.05
2018-04-07T19:00:34.887Z,101019.11
2018-04-07T19:03:02.438Z,101013.88
2018-04-07T19:05:30.135Z,101011.88
2018-04-07T19:07:57.744Z,101018.71
2018-04-07T19:10:25.274Z,101017.58
2018-04-07T19:12:52.901Z,101024.00
2018-04-07T19:15:20.466Z,101025.31
2018-04-07T19:17:48.014Z,101023.98
2018-04-07T19:20:15.590Z,101021.07
2018-04-07T19:22:43.160Z,101030.98
2018-04-07T19:25:10.760Z,101032.55
2018-04-07T19:27:38.441Z,101032.02
2018-04-07T19:30:06.050Z,101032.14
2018-04-07T19:32:33.650Z,101033.70
2018-04-07T19:35:01.240Z,101031.72
2018-04-07T19:37:29.083Z,101034.48
2018-04-07T19:39:56.804Z,101029.65
2018-04-07T19:42:24.370Z,101028.58
2018-04-07T19:44:52.059Z,101030.74
2018-04-07T19:47:19.625Z,101028.36
2018-04-07T19:49:47.235Z,101025.18
2018-04-07T19:52:14.915Z,101026.64
2018-04-07T19:54:42.520Z,101023.06
2018-04-07T19:57:10.186Z,101021.44
2018-04-07T19:59:37.995Z,101018.95
2018-04-07T20:02:05.636Z,101022.81
2018-04-07T20:04:33.208Z,101021.78
2018-04-07T20:07:00.750Z,101018.08
2018-04-07T20:09:28.490Z,101022.96
2018-04-07T20:11:56.072Z,101016.25
2018-04-07T20:14:23.632Z,101015.47
2018-04-07T20:16:51.235Z,101018.72
2018-04-07T20:19:19.063Z,101007.58
2018-04-07T20:21:46.662Z,101014.16
2018-04-07T20:24:14.264Z,101017.51
2018-04-07T20:26:41.915Z,101009.63
2018-04-07T20:29:09.465Z,101009.87
2018-04-07T20:31:37.029Z,101012.49
2018-04-07T20:34:04.906Z,101010.00
2018-04-07T20:36:32.498Z,101013.55
2018-04-07T20:39:00.075Z,101017.91
2018-04-07T20:41:27.652Z,101023.50
2018-04-07T20:43:55.878Z,101017.11
2018-04-07T20:46:23.378Z,101018.47
2018-04-07T20:48:50.943Z,101013.97
2018-04-07T20:51:18.498Z,101016.66
2018-04-07T20:53:46.038Z,101013.33
2018-04-07T20:56:13.683Z,101018.50
2018-04-07T20:58:41.208Z,101010.00
2018-04-07T21:01:08.745Z,101015.61
2018-04-07T21:03:36.369Z,101010.84
2018-04-07T21:06:03.955Z,101007.66
2018-04-07T21:08:32.315Z,101004.98
2018-04-07T21:11:00.972Z,101007.98
2018-04-07T21:13:28.549Z,101005.89
2018-04-07T21:15:56.105Z,101015.12
2018-04-07T21:18:23.679Z,101006.55
2018-04-07T21:20:51.267Z,101012.34
2018-04-07T21:23:18.811Z,101004.78
2018-04-07T21:25:46.693Z,101004.17
2018-04-07T21:28:14.285Z,101003.95
2018-04-07T21:30:41.797Z,101003.13
2018-04-07T21:33:09.345Z,101004.48
2018-04-07T21:35:36.876Z,101006.56
2018-04-07T21:38:04.416Z,101003.34
2018-04-07T21:40:31.997Z,101002.70
2018-04-07T21:42:59.578Z,100995.47
2018-04-07T21:45:27.143Z,101004.90
2018-04-07T21:47:54.807Z,100997.95
2018-04-07T21:50:22.817Z,100999.91
2018-04-07T21:52:50.525Z,100999.59
2018-04-07T21:55:18.273Z,100997.11
2018-04-07T21:57:45.788Z,101002.80
2018-04-07T22:00:13.308Z,100992.76
2018-04-07T22:02:42.731Z,100998.36
2018-04-07T22:05:10.265Z,100995.66
2018-04-07T22:07:37.767Z,100999.91
2018-04-07T22:10:06.054Z,100999.50
2018-04-07T22:12:35.781Z,100993.16
2018-04-07T22:15:03.503Z,100990.28
2018-04-07T22:17:31.073Z,100994.30
2018-04-07T22:19:58.596Z,100990.07
2018-04-07T22:22:26.204Z,100992.02
2018-04-07T22:24:54.234Z,100985.25
2018-04-07T22:27:21.804Z,100980.53
2018-04-07T22:29:51.181Z,100986.61
2018-04-07T22:32:18.987Z,100984.73
2018-04-07T22:34:46.522Z,100990.73
2018-04-07T22:37:14.296Z,100990.09
2018-04-07T22:39:42.165Z,100986.66
2018-04-07T22:42:09.686Z,100991.42
2018-04-07T22:44:37.256Z,100991.41
2018-04-07T22:47:04.942Z,100986.64
2018-04-07T22:49:32.476Z,100981.47
2018-04-07T22:51:59.995Z,100978.17
2018-04-07T22:54:27.602Z,100984.03
2018-04-07T22:56:55.175Z,100976.88
2018-04-07T22:59:22.701Z,100983.52
2018-04-07T23:01:50.261Z,100974.34
2018-04-07T23:04:17.786Z,100973.59
2018-04-07T23:06:45.317Z,100974.83
2018-04-07T23:09:12.856Z,100981.06
2018-04-07T23:11:40.383Z,100975.04
2018-04-07T23:14:07.988Z,100973.78
2018-04-07T23:16:35.648Z,100978.64
2018-04-07T23:19:03.261Z,100971.00
2018-04-07T23:21:30.829Z,100970.27
2018-04-07T23:23:58.428Z,100971.19
2018-04-07T23:26:26.077Z,100972.66
2018-04-07T23:28:53.595Z,100973.05
2018-04-07T23:31:21.255Z,100972.25
2018-04-07T23:33:49.121Z,100976.67
2018-04-07T23:36:17.093Z,100970.27
2018-04-07T23:38:44.972Z,100971.48
2018-04-07T23:41:12.521Z,100978.41
2018-04-07T23:43:40.048Z,100977.78
2018-04-07T23:46:07.674Z,100976.02
2018-04-07T23:48:35.236Z,100972.50
2018-04-07T23:51:02.795Z,100968.55
2018-04-07T23:53:30.356Z,100970.05
2018-04-07T23:55:57.880Z,100967.30
2018-04-07T23:58:25.405Z,100963.58
